sensor_id;sensor_type;location;lat;lon;timestamp;P1;durP1;ratioP1;P2;durP2;ratioP2
3891;SDS011;1961;48.194;16.370;2023-03-01T00:00:38;70.65;;;21.42;;
3891;SDS011;1961;48.194;16.370;2023-03-01T00:03:04;69.13;;;21.98;;
3891;SDS011;1961;48.194;16.370;2023-03-01T00:05:31;69.20;;;23.05;;
3891;SDS011;1961;48.194;16.370;2023-03-01T00:07:57;71.80;;;22.95;;
3891;SDS011;1961;48.194;16.370;2023-03-01T00:10:24;76.85;;;23.08;;
3891;SDS011;1961;48.194;16.370;2023-03-01T00:12:50;68.32;;;23.80;;
3891;SDS011;1961;48.194;16.370;2023-03-01T00:15:17;69.05;;;21.35;;
3891;SDS011;1961;48.194;16.370;2023-03-01T00:17:43;68.10;;;22.00;;
3891;SDS011;1961;48.194;16.370;2023-03-01T00:20:09;64.63;;;22.00;;
3891;SDS011;1961;48.194;16.370;2023-03-01T00:22:36;69.28;;;23.08;;
3891;SDS011;1961;48.194;16.370;2023-03-01T00:25:03;68.50;;;23.80;;
3891;SDS011;1961;48.194;16.370;2023-03-01T00:27:29;70.68;;;24.45;;
3891;SDS011;1961;48.194;16.370;2023-03-01T00:29:55;74.38;;;22.63;;
3891;SDS011;1961;48.194;16.370;2023-03-01T00:32:21;72.88;;;25.55;;
3891;SDS011;1961;48.194;16.370;2023-03-01T00:34:47;68.40;;;23.15;;
3891;SDS011;1961;48.194;16.370;2023-03-01T00:37:20;68.60;;;22.35;;
3891;SDS011;1961;48.194;16.370;2023-03-01T00:39:47;72.63;;;22.70;;
3891;SDS011;1961;48.194;16.370;2023-03-01T00:42:13;69.80;;;23.90;;
3891;SDS011;1961;48.194;16.370;2023-03-01T00:44:39;73.90;;;24.88;;
3891;SDS011;1961;48.194;16.370;2023-03-01T00:47:05;70.07;;;23.75;;
3891;SDS011;1961;48.194;16.370;2023-03-01T00:49:32;66.88;;;21.67;;
3891;SDS011;1961;48.194;16.370;2023-03-01T00:51:58;67.70;;;23.85;;
3891;SDS011;1961;48.194;16.370;2023-03-01T00:54:24;71.97;;;23.73;;
3891;SDS011;1961;48.194;16.370;2023-03-01T00:56:50;69.38;;;24.23;;
3891;SDS011;1961;48.194;16.370;2023-03-01T00:59:17;69.43;;;22.85;;
3891;SDS011;1961;48.194;16.370;2023-03-01T01:01:43;72.28;;;23.33;;
3891;SDS011;1961;48.194;16.370;2023-03-01T01:04:10;70.20;;;24.27;;
3891;SDS011;1961;48.194;16.370;2023-03-01T01:06:41;67.90;;;23.65;;
3891;SDS011;1961;48.194;16.370;2023-03-01T01:09:09;69.65;;;23.77;;
3891;SDS011;1961;48.194;16.370;2023-03-01T01:11:46;71.03;;;23.13;;
3891;SDS011;1961;48.194;16.370;2023-03-01T01:14:12;70.45;;;23.00;;
3891;SDS011;1961;48.194;16.370;2023-03-01T01:16:39;73.53;;;24.23;;
3891;SDS011;1961;48.194;16.370;2023-03-01T01:19:05;71.30;;;23.10;;
3891;SDS011;1961;48.194;16.370;2023-03-01T01:21:31;67.70;;;22.80;;
3891;SDS011;1961;48.194;16.370;2023-03-01T01:23:57;73.45;;;27.33;;
3891;SDS011;1961;48.194;16.370;2023-03-01T01:26:26;69.43;;;23.80;;
3891;SDS011;1961;48.194;16.370;2023-03-01T01:28:52;71.45;;;23.67;;
3891;SDS011;1961;48.194;16.370;2023-03-01T01:31:19;78.45;;;24.65;;
3891;SDS011;1961;48.194;16.370;2023-03-01T01:33:45;72.40;;;23.45;;
3891;SDS011;1961;48.194;16.370;2023-03-01T01:36:12;71.85;;;25.48;;
3891;SDS011;1961;48.194;16.370;2023-03-01T01:38:38;75.22;;;24.70;;
3891;SDS011;1961;48.194;16.370;2023-03-01T01:41:07;73.30;;;23.88;;
3891;SDS011;1961;48.194;16.370;2023-03-01T01:43:43;75.90;;;24.80;;
3891;SDS011;1961;48.194;16.370;2023-03-01T01:46:14;71.88;;;24.23;;
3891;SDS011;1961;48.194;16.370;2023-03-01T01:48:43;68.78;;;23.90;;
3891;SDS011;1961;48.194;16.370;2023-03-01T01:51:15;75.22;;;24.15;;
3891;SDS011;1961;48.194;16.370;2023-03-01T01:53:44;73.28;;;25.10;;
3891;SDS011;1961;48.194;16.370;2023-03-01T01:56:11;71.55;;;23.42;;
3891;SDS011;1961;48.194;16.370;2023-03-01T01:58:39;72.85;;;26.00;;
3891;SDS011;1961;48.194;16.370;2023-03-01T02:01:07;73.95;;;26.20;;
3891;SDS011;1961;48.194;16.370;2023-03-01T02:03:33;72.20;;;23.63;;
3891;SDS011;1961;48.194;16.370;2023-03-01T02:06:22;71.88;;;25.60;;
3891;SDS011;1961;48.194;16.370;2023-03-01T02:08:54;72.57;;;23.85;;
3891;SDS011;1961;48.194;16.370;2023-03-01T02:11:21;77.10;;;25.15;;
3891;SDS011;1961;48.194;16.370;2023-03-01T02:13:47;69.68;;;25.52;;
3891;SDS011;1961;48.194;16.370;2023-03-01T02:16:14;80.20;;;25.23;;
3891;SDS011;1961;48.194;16.370;2023-03-01T02:18:41;69.85;;;24.55;;
3891;SDS011;1961;48.194;16.370;2023-03-01T02:23:33;73.97;;;24.95;;
3891;SDS011;1961;48.194;16.370;2023-03-01T02:26:08;72.43;;;26.05;;
3891;SDS011;1961;48.194;16.370;2023-03-01T02:28:40;76.97;;;25.83;;
3891;SDS011;1961;48.194;16.370;2023-03-01T02:31:08;71.70;;;24.60;;
3891;SDS011;1961;48.194;16.370;2023-03-01T02:33:54;75.18;;;24.50;;
3891;SDS011;1961;48.194;16.370;2023-03-01T02:36:24;70.72;;;25.23;;
3891;SDS011;1961;48.194;16.370;2023-03-01T02:38:51;74.90;;;24.83;;
3891;SDS011;1961;48.194;16.370;2023-03-01T02:41:19;76.75;;;26.42;;
3891;SDS011;1961;48.194;16.370;2023-03-01T02:43:46;69.18;;;22.85;;
3891;SDS011;1961;48.194;16.370;2023-03-01T02:46:16;73.13;;;23.63;;
3891;SDS011;1961;48.194;16.370;2023-03-01T02:48:47;75.18;;;23.83;;
3891;SDS011;1961;48.194;16.370;2023-03-01T02:51:18;68.28;;;23.90;;
3891;SDS011;1961;48.194;16.370;2023-03-01T02:53:53;72.20;;;25.83;;
3891;SDS011;1961;48.194;16.370;2023-03-01T02:56:22;75.95;;;26.08;;
3891;SDS011;1961;48.194;16.370;2023-03-01T02:58:48;72.78;;;25.10;;
3891;SDS011;1961;48.194;16.370;2023-03-01T03:01:19;72.93;;;25.23;;
3891;SDS011;1961;48.194;16.370;2023-03-01T03:03:46;73.47;;;25.25;;
3891;SDS011;1961;48.194;16.370;2023-03-01T03:06:12;71.40;;;23.63;;
3891;SDS011;1961;48.194;16.370;2023-03-01T03:08:39;75.93;;;26.73;;
3891;SDS011;1961;48.194;16.370;2023-03-01T03:11:05;72.18;;;25.48;;
3891;SDS011;1961;48.194;16.370;2023-03-01T03:13:31;75.32;;;26.67;;
3891;SDS011;1961;48.194;16.370;2023-03-01T03:15:57;75.10;;;25.92;;
3891;SDS011;1961;48.194;16.370;2023-03-01T03:18:24;74.00;;;25.13;;
3891;SDS011;1961;48.194;16.370;2023-03-01T03:20:51;82.15;;;27.48;;
3891;SDS011;1961;48.194;16.370;2023-03-01T03:23:18;78.22;;;25.52;;
3891;SDS011;1961;48.194;16.370;2023-03-01T03:25:47;77.10;;;24.10;;
3891;SDS011;1961;48.194;16.370;2023-03-01T03:28:13;77.30;;;26.48;;
3891;SDS011;1961;48.194;16.370;2023-03-01T03:30:41;82.88;;;26.48;;
3891;SDS011;1961;48.194;16.370;2023-03-01T03:33:08;74.30;;;25.73;;
3891;SDS011;1961;48.194;16.370;2023-03-01T03:35:38;75.30;;;25.20;;
3891;SDS011;1961;48.194;16.370;2023-03-01T03:38:06;70.47;;;23.45;;
3891;SDS011;1961;48.194;16.370;2023-03-01T03:40:47;71.90;;;24.73;;
3891;SDS011;1961;48.194;16.370;2023-03-01T03:43:20;70.13;;;24.25;;
3891;SDS011;1961;48.194;16.370;2023-03-01T03:45:47;74.10;;;26.50;;
3891;SDS011;1961;48.194;16.370;2023-03-01T03:48:14;77.28;;;26.10;;
3891;SDS011;1961;48.194;16.370;2023-03-01T03:50:40;77.40;;;26.52;;
3891;SDS011;1961;48.194;16.370;2023-03-01T03:53:08;76.55;;;27.08;;
3891;SDS011;1961;48.194;16.370;2023-03-01T03:55:34;72.00;;;25.30;;
3891;SDS011;1961;48.194;16.370;2023-03-01T03:58:04;78.72;;;26.73;;
3891;SDS011;1961;48.194;16.370;2023-03-01T04:00:38;78.15;;;25.70;;
3891;SDS011;1961;48.194;16.370;2023-03-01T04:03:04;80.10;;;27.77;;
3891;SDS011;1961;48.194;16.370;2023-03-01T04:05:31;77.88;;;28.42;;
3891;SDS011;1961;48.194;16.370;2023-03-01T04:07:57;77.93;;;26.38;;
3891;SDS011;1961;48.194;16.370;2023-03-01T04:10:28;74.03;;;25.42;;
3891;SDS011;1961;48.194;16.370;2023-03-01T04:12:54;75.13;;;26.77;;
3891;SDS011;1961;48.194;16.370;2023-03-01T04:15:21;78.13;;;26.17;;
3891;SDS011;1961;48.194;16.370;2023-03-01T04:17:49;75.22;;;26.60;;
3891;SDS011;1961;48.194;16.370;2023-03-01T04:20:18;78.68;;;28.67;;
3891;SDS011;1961;48.194;16.370;2023-03-01T04:22:58;71.18;;;25.63;;
3891;SDS011;1961;48.194;16.370;2023-03-01T04:25:25;74.60;;;25.33;;
3891;SDS011;1961;48.194;16.370;2023-03-01T04:27:51;76.75;;;26.33;;
3891;SDS011;1961;48.194;16.370;2023-03-01T04:30:17;77.18;;;26.70;;
3891;SDS011;1961;48.194;16.370;2023-03-01T04:32:43;74.82;;;25.83;;
3891;SDS011;1961;48.194;16.370;2023-03-01T04:35:10;86.72;;;28.83;;
3891;SDS011;1961;48.194;16.370;2023-03-01T04:37:36;80.97;;;26.70;;
3891;SDS011;1961;48.194;16.370;2023-03-01T04:40:02;78.10;;;26.70;;
3891;SDS011;1961;48.194;16.370;2023-03-01T04:42:41;80.32;;;25.52;;
3891;SDS011;1961;48.194;16.370;2023-03-01T04:45:08;74.32;;;26.80;;
3891;SDS011;1961;48.194;16.370;2023-03-01T04:47:41;73.90;;;25.55;;
3891;SDS011;1961;48.194;16.370;2023-03-01T04:50:10;76.43;;;27.05;;
3891;SDS011;1961;48.194;16.370;2023-03-01T04:52:37;77.13;;;26.50;;
3891;SDS011;1961;48.194;16.370;2023-03-01T04:55:03;71.22;;;24.40;;
3891;SDS011;1961;48.194;16.370;2023-03-01T04:57:30;73.30;;;26.33;;
3891;SDS011;1961;48.194;16.370;2023-03-01T04:59:57;79.18;;;24.75;;
3891;SDS011;1961;48.194;16.370;2023-03-01T05:02:23;71.60;;;24.02;;
3891;SDS011;1961;48.194;16.370;2023-03-01T05:04:49;70.78;;;25.23;;
3891;SDS011;1961;48.194;16.370;2023-03-01T05:07:15;76.38;;;25.90;;
3891;SDS011;1961;48.194;16.370;2023-03-01T05:09:45;80.07;;;25.85;;
3891;SDS011;1961;48.194;16.370;2023-03-01T05:12:12;76.78;;;24.60;;
3891;SDS011;1961;48.194;16.370;2023-03-01T05:14:38;72.50;;;26.45;;
3891;SDS011;1961;48.194;16.370;2023-03-01T05:17:05;72.05;;;25.15;;
3891;SDS011;1961;48.194;16.370;2023-03-01T05:19:32;72.57;;;25.35;;
3891;SDS011;1961;48.194;16.370;2023-03-01T05:21:59;80.30;;;27.70;;
3891;SDS011;1961;48.194;16.370;2023-03-01T05:24:32;76.05;;;27.70;;
3891;SDS011;1961;48.194;16.370;2023-03-01T05:26:58;79.10;;;26.70;;
3891;SDS011;1961;48.194;16.370;2023-03-01T05:29:25;79.68;;;28.45;;
3891;SDS011;1961;48.194;16.370;2023-03-01T05:31:53;80.95;;;25.13;;
3891;SDS011;1961;48.194;16.370;2023-03-01T05:34:23;81.05;;;26.92;;
3891;SDS011;1961;48.194;16.370;2023-03-01T05:36:51;73.55;;;25.58;;
3891;SDS011;1961;48.194;16.370;2023-03-01T05:39:20;78.43;;;26.05;;
3891;SDS011;1961;48.194;16.370;2023-03-01T05:41:48;80.97;;;28.25;;
3891;SDS011;1961;48.194;16.370;2023-03-01T05:44:14;77.93;;;25.83;;
3891;SDS011;1961;48.194;16.370;2023-03-01T05:46:41;73.40;;;26.67;;
3891;SDS011;1961;48.194;16.370;2023-03-01T05:49:07;76.30;;;27.80;;
3891;SDS011;1961;48.194;16.370;2023-03-01T05:51:33;74.25;;;24.58;;
3891;SDS011;1961;48.194;16.370;2023-03-01T05:54:00;74.45;;;27.27;;
3891;SDS011;1961;48.194;16.370;2023-03-01T05:56:26;73.90;;;26.73;;
3891;SDS011;1961;48.194;16.370;2023-03-01T05:58:52;70.82;;;27.55;;
3891;SDS011;1961;48.194;16.370;2023-03-01T06:01:18;86.68;;;25.80;;
3891;SDS011;1961;48.194;16.370;2023-03-01T06:03:44;76.32;;;28.20;;
3891;SDS011;1961;48.194;16.370;2023-03-01T06:06:10;76.45;;;26.67;;
3891;SDS011;1961;48.194;16.370;2023-03-01T06:08:37;79.55;;;27.25;;
3891;SDS011;1961;48.194;16.370;2023-03-01T06:11:03;78.38;;;27.27;;
3891;SDS011;1961;48.194;16.370;2023-03-01T06:13:30;74.78;;;24.85;;
3891;SDS011;1961;48.194;16.370;2023-03-01T06:15:56;78.80;;;27.52;;
3891;SDS011;1961;48.194;16.370;2023-03-01T06:18:22;77.20;;;24.83;;
3891;SDS011;1961;48.194;16.370;2023-03-01T06:20:52;73.47;;;24.77;;
3891;SDS011;1961;48.194;16.370;2023-03-01T06:23:18;73.25;;;27.15;;
3891;SDS011;1961;48.194;16.370;2023-03-01T06:25:44;70.50;;;25.30;;
3891;SDS011;1961;48.194;16.370;2023-03-01T06:28:11;74.40;;;26.83;;
3891;SDS011;1961;48.194;16.370;2023-03-01T06:30:37;71.55;;;25.45;;
3891;SDS011;1961;48.194;16.370;2023-03-01T06:33:03;77.85;;;25.55;;
3891;SDS011;1961;48.194;16.370;2023-03-01T06:35:30;75.70;;;26.85;;
3891;SDS011;1961;48.194;16.370;2023-03-01T06:37:57;82.03;;;26.42;;
3891;SDS011;1961;48.194;16.370;2023-03-01T06:40:23;77.57;;;26.83;;
3891;SDS011;1961;48.194;16.370;2023-03-01T06:42:49;73.78;;;26.20;;
3891;SDS011;1961;48.194;16.370;2023-03-01T06:45:16;71.35;;;24.48;;
3891;SDS011;1961;48.194;16.370;2023-03-01T06:47:43;71.10;;;26.15;;
3891;SDS011;1961;48.194;16.370;2023-03-01T06:50:10;78.00;;;27.48;;
3891;SDS011;1961;48.194;16.370;2023-03-01T06:52:36;75.97;;;26.40;;
3891;SDS011;1961;48.194;16.370;2023-03-01T06:55:02;72.70;;;24.42;;
3891;SDS011;1961;48.194;16.370;2023-03-01T06:57:29;76.32;;;26.10;;
3891;SDS011;1961;48.194;16.370;2023-03-01T06:59:55;102.00;;;36.88;;
3891;SDS011;1961;48.194;16.370;2023-03-01T07:02:22;72.57;;;24.63;;
3891;SDS011;1961;48.194;16.370;2023-03-01T07:04:48;80.20;;;27.25;;
3891;SDS011;1961;48.194;16.370;2023-03-01T07:07:15;82.38;;;25.50;;
3891;SDS011;1961;48.194;16.370;2023-03-01T07:09:43;75.65;;;24.70;;
3891;SDS011;1961;48.194;16.370;2023-03-01T07:12:10;72.70;;;25.98;;
3891;SDS011;1961;48.194;16.370;2023-03-01T07:14:36;76.03;;;25.17;;
3891;SDS011;1961;48.194;16.370;2023-03-01T07:17:02;73.18;;;25.17;;
3891;SDS011;1961;48.194;16.370;2023-03-01T07:19:29;80.72;;;27.67;;
3891;SDS011;1961;48.194;16.370;2023-03-01T07:21:55;72.40;;;25.10;;
3891;SDS011;1961;48.194;16.370;2023-03-01T07:24:21;78.35;;;27.42;;
3891;SDS011;1961;48.194;16.370;2023-03-01T07:26:51;69.90;;;26.63;;
3891;SDS011;1961;48.194;16.370;2023-03-01T07:29:18;83.72;;;26.92;;
3891;SDS011;1961;48.194;16.370;2023-03-01T07:31:45;77.68;;;27.25;;
3891;SDS011;1961;48.194;16.370;2023-03-01T07:34:11;72.97;;;26.48;;
3891;SDS011;1961;48.194;16.370;2023-03-01T07:36:37;74.10;;;26.02;;
3891;SDS011;1961;48.194;16.370;2023-03-01T07:39:04;76.53;;;27.65;;
3891;SDS011;1961;48.194;16.370;2023-03-01T07:41:31;74.95;;;27.08;;
3891;SDS011;1961;48.194;16.370;2023-03-01T07:43:58;77.13;;;26.90;;
3891;SDS011;1961;48.194;16.370;2023-03-01T07:46:24;79.00;;;26.95;;
3891;SDS011;1961;48.194;16.370;2023-03-01T07:48:50;78.22;;;25.02;;
3891;SDS011;1961;48.194;16.370;2023-03-01T07:51:16;72.00;;;25.55;;
3891;SDS011;1961;48.194;16.370;2023-03-01T07:53:45;77.50;;;25.55;;
3891;SDS011;1961;48.194;16.370;2023-03-01T07:56:12;96.03;;;28.08;;
3891;SDS011;1961;48.194;16.370;2023-03-01T07:58:40;79.18;;;26.50;;
3891;SDS011;1961;48.194;16.370;2023-03-01T08:01:07;77.55;;;26.83;;
3891;SDS011;1961;48.194;16.370;2023-03-01T08:03:34;77.28;;;26.95;;
3891;SDS011;1961;48.194;16.370;2023-03-01T08:06:02;76.72;;;25.40;;
3891;SDS011;1961;48.194;16.370;2023-03-01T08:08:29;82.32;;;26.20;;
3891;SDS011;1961;48.194;16.370;2023-03-01T08:10:59;71.82;;;25.27;;
3891;SDS011;1961;48.194;16.370;2023-03-01T08:13:26;74.03;;;24.33;;
3891;SDS011;1961;48.194;16.370;2023-03-01T08:15:52;83.72;;;29.40;;
3891;SDS011;1961;48.194;16.370;2023-03-01T08:18:19;76.22;;;24.98;;
3891;SDS011;1961;48.194;16.370;2023-03-01T08:20:45;79.65;;;25.58;;
3891;SDS011;1961;48.194;16.370;2023-03-01T08:23:11;77.55;;;27.80;;
3891;SDS011;1961;48.194;16.370;2023-03-01T08:25:38;75.68;;;27.05;;
3891;SDS011;1961;48.194;16.370;2023-03-01T08:28:05;76.53;;;27.30;;
3891;SDS011;1961;48.194;16.370;2023-03-01T08:30:31;82.32;;;27.27;;
3891;SDS011;1961;48.194;16.370;2023-03-01T08:33:01;79.18;;;27.15;;
3891;SDS011;1961;48.194;16.370;2023-03-01T08:35:27;75.13;;;26.77;;
3891;SDS011;1961;48.194;16.370;2023-03-01T08:37:53;80.53;;;28.40;;
3891;SDS011;1961;48.194;16.370;2023-03-01T08:40:19;79.15;;;26.45;;
3891;SDS011;1961;48.194;16.370;2023-03-01T08:42:45;71.40;;;26.80;;
3891;SDS011;1961;48.194;16.370;2023-03-01T08:45:12;75.93;;;28.02;;
3891;SDS011;1961;48.194;16.370;2023-03-01T08:47:43;75.20;;;25.95;;
3891;SDS011;1961;48.194;16.370;2023-03-01T08:50:10;73.57;;;26.17;;
3891;SDS011;1961;48.194;16.370;2023-03-01T08:52:36;78.45;;;27.08;;
3891;SDS011;1961;48.194;16.370;2023-03-01T08:55:02;79.45;;;26.58;;
3891;SDS011;1961;48.194;16.370;2023-03-01T08:57:29;74.47;;;26.00;;
3891;SDS011;1961;48.194;16.370;2023-03-01T08:59:55;79.53;;;27.83;;
3891;SDS011;1961;48.194;16.370;2023-03-01T09:02:22;74.70;;;26.50;;
3891;SDS011;1961;48.194;16.370;2023-03-01T09:04:48;81.70;;;27.50;;
3891;SDS011;1961;48.194;16.370;2023-03-01T09:07:14;87.18;;;29.00;;
3891;SDS011;1961;48.194;16.370;2023-03-01T09:09:40;78.43;;;28.25;;
3891;SDS011;1961;48.194;16.370;2023-03-01T09:12:07;78.15;;;27.45;;
3891;SDS011;1961;48.194;16.370;2023-03-01T09:14:33;73.95;;;27.80;;
3891;SDS011;1961;48.194;16.370;2023-03-01T09:16:59;74.43;;;27.20;;
3891;SDS011;1961;48.194;16.370;2023-03-01T09:19:28;88.57;;;28.40;;
3891;SDS011;1961;48.194;16.370;2023-03-01T09:21:54;75.95;;;27.63;;
3891;SDS011;1961;48.194;16.370;2023-03-01T09:24:22;83.53;;;31.75;;
3891;SDS011;1961;48.194;16.370;2023-03-01T09:26:49;71.63;;;26.52;;
3891;SDS011;1961;48.194;16.370;2023-03-01T09:29:15;74.63;;;25.70;;
3891;SDS011;1961;48.194;16.370;2023-03-01T09:31:42;75.63;;;25.60;;
3891;SDS011;1961;48.194;16.370;2023-03-01T09:34:08;72.47;;;25.40;;
3891;SDS011;1961;48.194;16.370;2023-03-01T09:36:35;73.30;;;25.70;;
3891;SDS011;1961;48.194;16.370;2023-03-01T09:39:02;73.18;;;24.50;;
3891;SDS011;1961;48.194;16.370;2023-03-01T09:46:45;69.88;;;24.33;;
3891;SDS011;1961;48.194;16.370;2023-03-01T09:49:12;70.53;;;23.50;;
3891;SDS011;1961;48.194;16.370;2023-03-01T09:51:42;71.82;;;24.02;;
3891;SDS011;1961;48.194;16.370;2023-03-01T09:54:10;70.10;;;24.70;;
3891;SDS011;1961;48.194;16.370;2023-03-01T09:56:40;73.38;;;25.52;;
3891;SDS011;1961;48.194;16.370;2023-03-01T10:09:38;66.63;;;23.42;;
3891;SDS011;1961;48.194;16.370;2023-03-01T10:12:09;67.88;;;22.67;;
3891;SDS011;1961;48.194;16.370;2023-03-01T10:14:38;68.32;;;21.42;;
3891;SDS011;1961;48.194;16.370;2023-03-01T10:17:08;64.07;;;20.35;;
3891;SDS011;1961;48.194;16.370;2023-03-01T10:19:40;70.85;;;21.63;;
3891;SDS011;1961;48.194;16.370;2023-03-01T10:22:16;62.17;;;18.98;;
3891;SDS011;1961;48.194;16.370;2023-03-01T10:24:46;63.08;;;18.85;;
3891;SDS011;1961;48.194;16.370;2023-03-01T10:27:16;65.57;;;20.52;;
3891;SDS011;1961;48.194;16.370;2023-03-01T10:29:49;69.85;;;23.25;;
3891;SDS011;1961;48.194;16.370;2023-03-01T10:32:17;70.50;;;20.70;;
3891;SDS011;1961;48.194;16.370;2023-03-01T10:34:44;62.28;;;19.05;;
3891;SDS011;1961;48.194;16.370;2023-03-01T10:39:36;65.28;;;19.30;;
3891;SDS011;1961;48.194;16.370;2023-03-01T10:42:04;63.00;;;19.50;;
3891;SDS011;1961;48.194;16.370;2023-03-01T10:44:44;66.50;;;19.20;;
3891;SDS011;1961;48.194;16.370;2023-03-01T10:50:05;55.67;;;16.58;;
3891;SDS011;1961;48.194;16.370;2023-03-01T10:52:33;65.90;;;19.77;;
3891;SDS011;1961;48.194;16.370;2023-03-01T10:55:01;60.60;;;16.98;;
3891;SDS011;1961;48.194;16.370;2023-03-01T10:57:32;58.65;;;18.27;;
3891;SDS011;1961;48.194;16.370;2023-03-01T11:00:20;62.88;;;18.98;;
3891;SDS011;1961;48.194;16.370;2023-03-01T11:02:48;57.65;;;15.77;;
3891;SDS011;1961;48.194;16.370;2023-03-01T11:05:21;60.33;;;18.08;;
3891;SDS011;1961;48.194;16.370;2023-03-01T11:10:24;67.10;;;20.15;;
3891;SDS011;1961;48.194;16.370;2023-03-01T11:13:05;62.80;;;20.17;;
3891;SDS011;1961;48.194;16.370;2023-03-01T11:15:33;60.58;;;19.95;;
3891;SDS011;1961;48.194;16.370;2023-03-01T11:17:59;73.05;;;21.40;;
3891;SDS011;1961;48.194;16.370;2023-03-01T11:23:28;64.38;;;20.10;;
3891;SDS011;1961;48.194;16.370;2023-03-01T11:25:57;65.82;;;21.25;;
3891;SDS011;1961;48.194;16.370;2023-03-01T11:28:24;64.70;;;21.40;;
3891;SDS011;1961;48.194;16.370;2023-03-01T11:30:53;76.75;;;25.90;;
3891;SDS011;1961;48.194;16.370;2023-03-01T11:36:02;72.28;;;23.20;;
3891;SDS011;1961;48.194;16.370;2023-03-01T11:38:32;66.10;;;23.65;;
3891;SDS011;1961;48.194;16.370;2023-03-01T11:41:16;67.13;;;21.05;;
3891;SDS011;1961;48.194;16.370;2023-03-01T11:43:49;70.30;;;22.10;;
3891;SDS011;1961;48.194;16.370;2023-03-01T11:46:39;63.47;;;20.30;;
3891;SDS011;1961;48.194;16.370;2023-03-01T11:57:14;66.85;;;20.13;;
3891;SDS011;1961;48.194;16.370;2023-03-01T12:02:23;63.20;;;19.55;;
3891;SDS011;1961;48.194;16.370;2023-03-01T12:07:23;65.05;;;20.45;;
3891;SDS011;1961;48.194;16.370;2023-03-01T12:18:00;64.80;;;19.20;;
3891;SDS011;1961;48.194;16.370;2023-03-01T12:20:33;66.15;;;20.42;;
3891;SDS011;1961;48.194;16.370;2023-03-01T12:23:10;60.75;;;18.00;;
3891;SDS011;1961;48.194;16.370;2023-03-01T12:25:43;66.65;;;23.75;;
3891;SDS011;1961;48.194;16.370;2023-03-01T12:31:08;74.68;;;21.90;;
3891;SDS011;1961;48.194;16.370;2023-03-01T12:33:49;62.80;;;20.60;;
3891;SDS011;1961;48.194;16.370;2023-03-01T12:36:27;59.38;;;16.83;;
3891;SDS011;1961;48.194;16.370;2023-03-01T12:44:28;60.33;;;19.63;;
3891;SDS011;1961;48.194;16.370;2023-03-01T12:47:08;61.63;;;18.98;;
3891;SDS011;1961;48.194;16.370;2023-03-01T12:49:39;67.07;;;19.92;;
3891;SDS011;1961;48.194;16.370;2023-03-01T12:54:35;62.92;;;19.27;;
3891;SDS011;1961;48.194;16.370;2023-03-01T12:57:45;58.83;;;18.30;;
3891;SDS011;1961;48.194;16.370;2023-03-01T13:02:48;61.38;;;18.10;;
3891;SDS011;1961;48.194;16.370;2023-03-01T13:05:22;59.92;;;18.35;;
3891;SDS011;1961;48.194;16.370;2023-03-01T13:08:14;58.30;;;18.88;;
3891;SDS011;1961;48.194;16.370;2023-03-01T13:10:40;62.03;;;19.75;;
3891;SDS011;1961;48.194;16.370;2023-03-01T13:13:13;63.00;;;20.83;;
3891;SDS011;1961;48.194;16.370;2023-03-01T13:15:40;61.75;;;20.08;;
3891;SDS011;1961;48.194;16.370;2023-03-01T13:23:19;64.05;;;20.30;;
3891;SDS011;1961;48.194;16.370;2023-03-01T13:30:57;62.25;;;19.67;;
3891;SDS011;1961;48.194;16.370;2023-03-01T13:35:53;62.40;;;19.95;;
3891;SDS011;1961;48.194;16.370;2023-03-01T13:41:07;64.25;;;19.08;;
3891;SDS011;1961;48.194;16.370;2023-03-01T13:43:37;60.58;;;18.83;;
3891;SDS011;1961;48.194;16.370;2023-03-01T13:48:36;63.67;;;19.98;;
3891;SDS011;1961;48.194;16.370;2023-03-01T13:51:04;63.30;;;20.95;;
3891;SDS011;1961;48.194;16.370;2023-03-01T13:53:33;66.00;;;20.98;;
3891;SDS011;1961;48.194;16.370;2023-03-01T13:56:13;59.30;;;18.70;;
3891;SDS011;1961;48.194;16.370;2023-03-01T13:58:53;60.53;;;19.92;;
3891;SDS011;1961;48.194;16.370;2023-03-01T14:01:24;62.88;;;21.50;;
3891;SDS011;1961;48.194;16.370;2023-03-01T14:03:50;65.60;;;19.48;;
3891;SDS011;1961;48.194;16.370;2023-03-01T14:06:19;61.28;;;18.27;;
3891;SDS011;1961;48.194;16.370;2023-03-01T14:08:46;63.08;;;19.00;;
3891;SDS011;1961;48.194;16.370;2023-03-01T14:16:19;59.45;;;18.67;;
3891;SDS011;1961;48.194;16.370;2023-03-01T14:21:34;59.75;;;19.38;;
3891;SDS011;1961;48.194;16.370;2023-03-01T14:24:02;63.58;;;19.90;;
3891;SDS011;1961;48.194;16.370;2023-03-01T14:26:28;58.72;;;18.83;;
3891;SDS011;1961;48.194;16.370;2023-03-01T14:28:56;58.40;;;18.80;;
3891;SDS011;1961;48.194;16.370;2023-03-01T14:31:36;63.03;;;20.05;;
3891;SDS011;1961;48.194;16.370;2023-03-01T14:34:04;62.78;;;20.50;;
3891;SDS011;1961;48.194;16.370;2023-03-01T14:36:32;62.75;;;20.00;;
3891;SDS011;1961;48.194;16.370;2023-03-01T14:38:59;62.47;;;20.20;;
3891;SDS011;1961;48.194;16.370;2023-03-01T14:41:31;60.58;;;19.05;;
3891;SDS011;1961;48.194;16.370;2023-03-01T14:43:59;63.20;;;20.65;;
3891;SDS011;1961;48.194;16.370;2023-03-01T14:46:31;63.42;;;20.70;;
3891;SDS011;1961;48.194;16.370;2023-03-01T14:49:01;60.83;;;18.92;;
3891;SDS011;1961;48.194;16.370;2023-03-01T14:51:28;65.45;;;21.98;;
3891;SDS011;1961;48.194;16.370;2023-03-01T14:53:55;65.28;;;20.60;;
3891;SDS011;1961;48.194;16.370;2023-03-01T14:56:21;68.90;;;20.20;;
3891;SDS011;1961;48.194;16.370;2023-03-01T14:58:51;65.28;;;19.83;;
3891;SDS011;1961;48.194;16.370;2023-03-01T15:01:18;63.85;;;21.73;;
3891;SDS011;1961;48.194;16.370;2023-03-01T15:03:48;69.70;;;22.52;;
3891;SDS011;1961;48.194;16.370;2023-03-01T15:06:16;65.28;;;22.55;;
3891;SDS011;1961;48.194;16.370;2023-03-01T15:08:50;69.22;;;24.35;;
3891;SDS011;1961;48.194;16.370;2023-03-01T15:11:20;69.25;;;21.35;;
3891;SDS011;1961;48.194;16.370;2023-03-01T15:13:48;70.38;;;21.50;;
3891;SDS011;1961;48.194;16.370;2023-03-01T15:16:30;66.05;;;21.40;;
3891;SDS011;1961;48.194;16.370;2023-03-01T15:26:37;69.45;;;24.02;;
3891;SDS011;1961;48.194;16.370;2023-03-01T15:29:05;68.63;;;22.10;;
3891;SDS011;1961;48.194;16.370;2023-03-01T15:31:42;65.43;;;20.50;;
3891;SDS011;1961;48.194;16.370;2023-03-01T15:34:09;64.38;;;21.25;;
3891;SDS011;1961;48.194;16.370;2023-03-01T15:36:43;63.05;;;21.38;;
3891;SDS011;1961;48.194;16.370;2023-03-01T15:45:11;65.78;;;21.40;;
3891;SDS011;1961;48.194;16.370;2023-03-01T15:47:48;71.43;;;24.85;;
3891;SDS011;1961;48.194;16.370;2023-03-01T15:50:22;66.10;;;21.98;;
3891;SDS011;1961;48.194;16.370;2023-03-01T15:52:49;67.63;;;23.35;;
3891;SDS011;1961;48.194;16.370;2023-03-01T15:55:17;67.72;;;23.70;;
3891;SDS011;1961;48.194;16.370;2023-03-01T15:57:44;64.57;;;22.30;;
3891;SDS011;1961;48.194;16.370;2023-03-01T16:00:11;65.38;;;22.35;;
3891;SDS011;1961;48.194;16.370;2023-03-01T16:02:41;67.70;;;21.98;;
3891;SDS011;1961;48.194;16.370;2023-03-01T16:05:15;67.82;;;21.77;;
3891;SDS011;1961;48.194;16.370;2023-03-01T16:07:43;66.63;;;20.52;;
3891;SDS011;1961;48.194;16.370;2023-03-01T16:10:09;62.63;;;20.42;;
3891;SDS011;1961;48.194;16.370;2023-03-01T16:12:36;73.78;;;23.52;;
3891;SDS011;1961;48.194;16.370;2023-03-01T16:15:05;64.18;;;19.45;;
3891;SDS011;1961;48.194;16.370;2023-03-01T16:17:31;67.25;;;21.42;;
3891;SDS011;1961;48.194;16.370;2023-03-01T16:19:57;66.47;;;20.30;;
3891;SDS011;1961;48.194;16.370;2023-03-01T16:22:24;65.53;;;19.40;;
3891;SDS011;1961;48.194;16.370;2023-03-01T16:24:52;59.67;;;18.27;;
3891;SDS011;1961;48.194;16.370;2023-03-01T16:27:18;65.10;;;21.15;;